Time;durP1;ratioP1;P1;durP2;ratioP2;P2;SDS_P1;SDS_P2;PMS_P1;PMS_P2;Temp;Humidity;BMP_temperature;BMP_pressure;BME280_temperature;BME280_humidity;BME280_pressure;Samples;Min_cycle;Max_cycle;Signal;HPM_P1;HPM_P2
2022/10/22 00:01:28;;;;;;;;;;;12.00;99.90;;;;;;5077437;28;19909;-74
2022/10/22 00:03:54;;;;;;;;;;;11.90;99.90;;;;;;5075733;28;20395;-73
2022/10/22 00:06:20;;;;;;;;;;;11.90;99.90;;;;;;5077586;28;19917;-73
2022/10/22 00:08:45;;;;;;;;;;;11.90;99.90;;;;;;5077340;28;20372;-73
2022/10/22 00:11:12;;;;;;;;;;;11.90;99.90;;;;;;5077478;28;19912;-73
2022/10/22 00:13:37;;;;;;;;;;;11.90;99.90;;;;;;5076831;28;19990;-73
2022/10/22 00:16:03;;;;;;;;;;;11.90;99.90;;;;;;5076996;28;19924;-73
2022/10/22 00:18:28;;;;;;;;;;;11.90;99.90;;;;;;5076782;28;20379;-73
2022/10/22 00:20:54;;;;;;;;;;;11.90;99.90;;;;;;5109465;28;19943;-73
2022/10/22 00:23:20;;;;;;;;;;;11.80;99.90;;;;;;5076755;28;19916;-73
2022/10/22 00:25:46;;;;;;;;;;;11.80;99.90;;;;;;5075405;28;19978;-73
2022/10/22 00:28:12;;;;;;;;;;;11.80;99.90;;;;;;5076626;28;19973;-73
2022/10/22 00:30:37;;;;;;;;;;;11.80;99.90;;;;;;5076886;28;19920;-73
2022/10/22 00:33:03;;;;;;;;;;;11.80;99.90;;;;;;5076688;28;19919;-73
2022/10/22 00:35:28;;;;;;;;;;;11.80;99.90;;;;;;5077045;28;19944;-73
2022/10/22 00:37:54;;;;;;;;;;;11.80;99.90;;;;;;5109053;28;19913;-73
2022/10/22 00:40:20;;;;;;;;;;;11.80;99.90;;;;;;5076582;28;19968;-73
2022/10/22 00:42:45;;;;;;;;;;;11.80;99.90;;;;;;5076301;28;19913;-73
2022/10/22 00:45:11;;;;;;;;;;;11.80;99.90;;;;;;5076573;28;20394;-73
2022/10/22 00:47:36;;;;;;;;;;;11.80;99.90;;;;;;5076277;28;19915;-73
2022/10/22 00:50:03;;;;;;;;;;;11.70;99.90;;;;;;5076461;28;20253;-73
2022/10/22 00:52:29;;;;;;;;;;;11.70;99.90;;;;;;5076356;28;19909;-73
2022/10/22 00:54:56;;;;;;;;;;;11.60;99.90;;;;;;5076658;28;19986;-74
2022/10/22 00:57:21;;;;;;;;;;;11.60;99.90;;;;;;5076410;28;19912;-74
2022/10/22 00:59:47;;;;;;;;;;;11.60;99.90;;;;;;5075946;28;19912;-74
2022/10/22 01:02:13;;;;;;;;;;;11.60;99.90;;;;;;5076198;28;19913;-74
2022/10/22 01:04:39;;;;;;;;;;;11.60;99.90;;;;;;5076019;28;20363;-74
2022/10/22 01:07:04;;;;;;;;;;;11.70;99.90;;;;;;5076247;28;20011;-74
2022/10/22 01:09:39;;;;;;;;;;;11.60;99.90;;;;;;5074453;28;19945;-74
2022/10/22 01:12:23;;;;;;;;;;;11.60;99.90;;;;;;5075309;28;19908;-74
2022/10/22 01:15:09;;;;;;;;;;;11.60;99.90;;;;;;5075798;28;19951;-74
2022/10/22 01:17:34;;;;;;;;;;;11.60;99.90;;;;;;5082619;28;19943;-75
2022/10/22 01:20:03;;;;;;;;;;;11.60;99.90;;;;;;5074820;28;19992;-74
2022/10/22 01:22:39;;;;;;;;;;;11.60;99.90;;;;;;5074282;28;19909;-74
2022/10/22 01:25:09;;;;;;;;;;;11.60;99.90;;;;;;5075879;28;19908;-74
2022/10/22 01:27:52;;;;;;;;;;;11.60;99.90;;;;;;5075534;28;20398;-74
2022/10/22 01:30:18;;;;;;;;;;;11.60;99.90;;;;;;5075810;28;19908;-74
2022/10/22 01:32:47;;;;;;;;;;;11.50;99.90;;;;;;5074079;28;20011;-73
2022/10/22 01:35:15;;;;;;;;;;;11.50;99.90;;;;;;5074128;28;19909;-74
2022/10/22 01:37:43;;;;;;;;;;;11.50;99.90;;;;;;5075359;28;19920;-74
2022/10/22 01:40:10;;;;;;;;;;;11.50;99.90;;;;;;5075240;28;19912;-74
2022/10/22 01:42:36;;;;;;;;;;;11.50;99.90;;;;;;5075603;28;19916;-74
2022/10/22 01:45:09;;;;;;;;;;;11.50;99.90;;;;;;5075212;28;20279;-74
2022/10/22 01:47:34;;;;;;;;;;;11.40;99.90;;;;;;5075478;28;19932;-74
2022/10/22 01:50:17;;;;;;;;;;;11.40;99.90;;;;;;5075158;28;20368;-74
2022/10/22 01:52:44;;;;;;;;;;;11.40;99.90;;;;;;5075243;28;20352;-74
2022/10/22 01:55:16;;;;;;;;;;;11.40;99.90;;;;;;5075269;28;19999;-74
2022/10/22 01:57:41;;;;;;;;;;;11.40;99.90;;;;;;5074974;28;19967;-74
2022/10/22 02:00:08;;;;;;;;;;;11.40;99.90;;;;;;5075096;28;20380;-74
2022/10/22 02:02:52;;;;;;;;;;;11.40;99.90;;;;;;5074711;28;19958;-74
2022/10/22 02:05:20;;;;;;;;;;;11.40;99.90;;;;;;5074802;28;19909;-75
2022/10/22 02:07:48;;;;;;;;;;;11.40;99.90;;;;;;5074675;28;20241;-75
2022/10/22 02:10:14;;;;;;;;;;;11.30;99.90;;;;;;5074950;28;19977;-74
2022/10/22 02:12:42;;;;;;;;;;;11.30;99.90;;;;;;5074537;28;19912;-74
2022/10/22 02:15:08;;;;;;;;;;;11.30;99.90;;;;;;5074521;28;20269;-74
2022/10/22 02:17:34;;;;;;;;;;;11.20;99.90;;;;;;5074421;28;19927;-74
2022/10/22 02:20:03;;;;;;;;;;;11.10;99.90;;;;;;5074421;28;19916;-75
2022/10/22 02:22:29;;;;;;;;;;;11.10;99.90;;;;;;5073231;28;20343;-74
2022/10/22 02:24:55;;;;;;;;;;;11.00;99.90;;;;;;5074983;28;19948;-75
2022/10/22 02:27:26;;;;;;;;;;;10.90;99.90;;;;;;5074335;28;20395;-74
2022/10/22 02:30:12;;;;;;;;;;;10.80;99.90;;;;;;5074308;28;19908;-74
2022/10/22 02:32:49;;;;;;;;;;;10.70;99.90;;;;;;5074636;28;20003;-74
2022/10/22 02:35:16;;;;;;;;;;;10.70;99.90;;;;;;5074507;28;19946;-75
2022/10/22 02:37:43;;;;;;;;;;;10.70;99.90;;;;;;5074358;28;19909;-74
2022/10/22 02:40:08;;;;;;;;;;;10.70;99.90;;;;;;5074037;28;19916;-74
2022/10/22 02:42:35;;;;;;;;;;;10.70;99.90;;;;;;5073995;28;20061;-75
2022/10/22 02:45:00;;;;;;;;;;;10.70;99.90;;;;;;5074018;28;19924;-75
2022/10/22 02:47:26;;;;;;;;;;;10.80;99.90;;;;;;5074285;28;20292;-74
2022/10/22 02:49:52;;;;;;;;;;;10.80;99.90;;;;;;5106641;28;19960;-74
2022/10/22 02:52:17;;;;;;;;;;;10.80;99.90;;;;;;5074118;28;19912;-74
2022/10/22 02:54:43;;;;;;;;;;;10.70;99.90;;;;;;5073870;28;19912;-74
2022/10/22 02:57:08;;;;;;;;;;;10.70;99.90;;;;;;5074110;28;19913;-74
2022/10/22 02:59:34;;;;;;;;;;;10.70;99.90;;;;;;5073699;28;19923;-74
2022/10/22 03:01:59;;;;;;;;;;;10.70;99.90;;;;;;5073984;28;20011;-74
2022/10/22 03:04:25;;;;;;;;;;;10.70;99.90;;;;;;5073737;28;20004;-74
2022/10/22 03:06:50;;;;;;;;;;;10.70;99.90;;;;;;5074011;28;19962;-74
2022/10/22 03:09:16;;;;;;;;;;;10.80;99.90;;;;;;5073965;28;20309;-74
2022/10/22 03:11:42;;;;;;;;;;;10.80;99.90;;;;;;5073677;28;19934;-74
2022/10/22 03:14:07;;;;;;;;;;;10.90;99.90;;;;;;5073587;28;20285;-74
2022/10/22 03:16:33;;;;;;;;;;;10.90;99.90;;;;;;5073506;28;19986;-74
2022/10/22 03:19:00;;;;;;;;;;;10.90;99.90;;;;;;5072211;28;20426;-74
2022/10/22 03:21:41;;;;;;;;;;;10.90;99.90;;;;;;5073593;28;19919;-74
2022/10/22 03:24:10;;;;;;;;;;;10.90;99.90;;;;;;5073550;28;19909;-73
2022/10/22 03:26:36;;;;;;;;;;;10.90;99.90;;;;;;5073876;28;20382;-73
2022/10/22 03:29:01;;;;;;;;;;;10.90;99.90;;;;;;5073525;28;19931;-73
2022/10/22 03:31:27;;;;;;;;;;;10.90;99.90;;;;;;5073990;28;20357;-73
2022/10/22 03:33:52;;;;;;;;;;;10.90;99.90;;;;;;5073504;28;19955;-72
2022/10/22 03:36:18;;;;;;;;;;;10.90;99.90;;;;;;5073378;28;19958;-71
2022/10/22 03:38:44;;;;;;;;;;;10.90;99.90;;;;;;5073389;28;19918;-70
2022/10/22 03:41:09;;;;;;;;;;;10.90;99.90;;;;;;5073589;28;20390;-70
2022/10/22 03:43:36;;;;;;;;;;;10.90;99.90;;;;;;5073286;28;19920;-70
2022/10/22 03:46:02;;;;;;;;;;;11.00;99.90;;;;;;5073660;28;19957;-70
2022/10/22 03:48:27;;;;;;;;;;;11.00;99.90;;;;;;5073344;28;19912;-71
2022/10/22 03:50:53;;;;;;;;;;;11.00;99.90;;;;;;5073603;28;20276;-71
2022/10/22 03:53:18;;;;;;;;;;;11.00;99.90;;;;;;5073227;28;19912;-71
2022/10/22 03:55:44;;;;;;;;;;;11.00;99.90;;;;;;5073838;28;19919;-70
2022/10/22 03:58:10;;;;;;;;;;;11.00;99.90;;;;;;5073539;28;19969;-70
2022/10/22 04:00:38;;;;;;;;;;;11.00;99.90;;;;;;5073453;28;19920;-69
2022/10/22 04:03:04;;;;;;;;;;;11.00;99.90;;;;;;5071909;28;19915;-69
2022/10/22 04:05:31;;;;;;;;;;;11.00;99.90;;;;;;5073402;28;19916;-69
2022/10/22 04:07:56;;;;;;;;;;;11.00;99.90;;;;;;5073473;28;20356;-69
2022/10/22 04:10:22;;;;;;;;;;;11.00;99.90;;;;;;5073139;28;19913;-69
2022/10/22 04:12:48;;;;;;;;;;;11.00;99.90;;;;;;5105977;28;20385;-69
2022/10/22 04:15:13;;;;;;;;;;;11.00;99.90;;;;;;5073524;28;20364;-70
2022/10/22 04:17:39;;;;;;;;;;;11.00;99.90;;;;;;5071764;28;19917;-70
2022/10/22 04:20:05;;;;;;;;;;;11.00;99.90;;;;;;5073227;28;20019;-69
2022/10/22 04:22:34;;;;;;;;;;;11.00;99.90;;;;;;5071594;28;20435;-70
2022/10/22 04:24:59;;;;;;;;;;;11.10;99.90;;;;;;5072980;28;19966;-70
2022/10/22 04:27:28;;;;;;;;;;;11.10;99.90;;;;;;5073298;28;19946;-71
2022/10/22 04:29:53;;;;;;;;;;;11.10;99.90;;;;;;5073530;28;20351;-71
2022/10/22 04:32:19;;;;;;;;;;;11.10;99.90;;;;;;5073132;28;19913;-71
2022/10/22 04:34:44;;;;;;;;;;;11.20;99.90;;;;;;5105456;28;20011;-72
2022/10/22 04:37:10;;;;;;;;;;;11.20;99.90;;;;;;5073142;28;19917;-72
2022/10/22 04:39:36;;;;;;;;;;;11.20;99.90;;;;;;5072758;28;19928;-71
2022/10/22 04:42:02;;;;;;;;;;;11.20;99.90;;;;;;5072811;28;19919;-71
2022/10/22 04:44:28;;;;;;;;;;;11.10;99.90;;;;;;5072811;28;20381;-71
2022/10/22 04:46:53;;;;;;;;;;;11.10;99.90;;;;;;5075838;28;19966;-70
2022/10/22 04:49:19;;;;;;;;;;;11.10;99.90;;;;;;5076607;28;19913;-71
2022/10/22 04:51:45;;;;;;;;;;;11.10;99.90;;;;;;5076571;28;19912;-70
2022/10/22 04:54:10;;;;;;;;;;;11.10;99.90;;;;;;5076680;28;19927;-70
2022/10/22 04:56:36;;;;;;;;;;;11.20;99.90;;;;;;5076149;28;19919;-70
2022/10/22 04:59:03;;;;;;;;;;;11.20;99.90;;;;;;5076387;28;20351;-70
2022/10/22 05:01:32;;;;;;;;;;;11.10;99.90;;;;;;5076071;28;19920;-70
2022/10/22 05:03:59;;;;;;;;;;;11.10;99.90;;;;;;5074684;28;19913;-71
2022/10/22 05:06:26;;;;;;;;;;;11.10;99.90;;;;;;5076217;28;19913;-71
2022/10/22 05:08:53;;;;;;;;;;;11.10;99.90;;;;;;5074894;28;19915;-71
2022/10/22 05:11:19;;;;;;;;;;;11.10;99.90;;;;;;5075903;28;19953;-71
2022/10/22 05:13:45;;;;;;;;;;;11.10;99.90;;;;;;5075825;28;19909;-71
2022/10/22 05:16:11;;;;;;;;;;;11.10;99.90;;;;;;5075790;28;19920;-71
2022/10/22 05:18:38;;;;;;;;;;;11.10;99.90;;;;;;5075838;28;19940;-71
2022/10/22 05:21:03;;;;;;;;;;;11.10;99.90;;;;;;5075687;28;20354;-71
2022/10/22 05:23:29;;;;;;;;;;;11.10;99.90;;;;;;5075632;28;19950;-71
2022/10/22 05:25:54;;;;;;;;;;;11.20;99.90;;;;;;5075872;28;19908;-71
2022/10/22 05:28:20;;;;;;;;;;;11.20;99.90;;;;;;5075816;28;19917;-71
2022/10/22 05:30:55;;;;;;;;;;;11.20;99.90;;;;;;5076129;28;20353;-71
2022/10/22 05:33:21;;;;;;;;;;;11.20;99.90;;;;;;5075754;28;19962;-71
2022/10/22 05:35:50;;;;;;;;;;;11.20;99.90;;;;;;5075796;28;19916;-71
2022/10/22 05:38:16;;;;;;;;;;;11.30;99.90;;;;;;5075692;28;19908;-72
2022/10/22 05:40:41;;;;;;;;;;;11.30;99.90;;;;;;5075548;28;19916;-72
2022/10/22 05:43:07;;;;;;;;;;;11.30;99.90;;;;;;5075249;28;19913;-71
2022/10/22 05:45:36;;;;;;;;;;;11.30;99.90;;;;;;5075559;28;19912;-71
2022/10/22 05:48:01;;;;;;;;;;;11.30;99.90;;;;;;5075191;28;20330;-71
2022/10/22 05:50:27;;;;;;;;;;;11.40;99.90;;;;;;5075165;28;20030;-71
2022/10/22 05:52:52;;;;;;;;;;;11.30;99.90;;;;;;5075391;28;19913;-71
2022/10/22 05:55:18;;;;;;;;;;;11.30;99.90;;;;;;5075063;28;19920;-71
2022/10/22 05:57:43;;;;;;;;;;;11.30;99.90;;;;;;5075021;28;19912;-70
2022/10/22 06:00:09;;;;;;;;;;;11.30;99.90;;;;;;5074891;28;19966;-70
2022/10/22 06:02:35;;;;;;;;;;;11.30;99.90;;;;;;5107379;28;19913;-70
2022/10/22 06:05:00;;;;;;;;;;;11.30;99.90;;;;;;5074777;28;19923;-70
2022/10/22 06:07:26;;;;;;;;;;;11.40;99.90;;;;;;5074765;28;19919;-70
2022/10/22 06:09:52;;;;;;;;;;;11.40;99.90;;;;;;5074966;28;19952;-70
2022/10/22 06:12:18;;;;;;;;;;;11.40;99.90;;;;;;5073284;28;19912;-70
2022/10/22 06:14:43;;;;;;;;;;;11.40;99.90;;;;;;5107223;28;19912;-70
2022/10/22 06:17:10;;;;;;;;;;;11.40;99.90;;;;;;5074524;28;19920;-70
2022/10/22 06:19:36;;;;;;;;;;;11.40;99.90;;;;;;5074498;28;19960;-70
2022/10/22 06:22:02;;;;;;;;;;;11.40;99.90;;;;;;5074645;28;20276;-70
2022/10/22 06:24:28;;;;;;;;;;;11.40;99.90;;;;;;5074407;28;19991;-70
2022/10/22 06:26:54;;;;;;;;;;;11.40;99.90;;;;;;5074686;28;19955;-70
2022/10/22 06:29:20;;;;;;;;;;;11.40;99.90;;;;;;5073018;28;19938;-70
2022/10/22 06:31:46;;;;;;;;;;;11.40;99.90;;;;;;5074575;28;19946;-70
2022/10/22 06:34:12;;;;;;;;;;;11.40;99.90;;;;;;5074235;28;19999;-70
2022/10/22 06:36:41;;;;;;;;;;;11.40;99.90;;;;;;5074617;28;19909;-70
2022/10/22 06:39:09;;;;;;;;;;;11.40;99.90;;;;;;5072857;28;19915;-70
2022/10/22 06:41:35;;;;;;;;;;;11.40;99.90;;;;;;5074420;28;19908;-70
2022/10/22 06:44:00;;;;;;;;;;;11.40;99.90;;;;;;5073898;28;20241;-70
2022/10/22 06:46:26;;;;;;;;;;;11.30;99.90;;;;;;5074002;28;19999;-70
2022/10/22 06:48:53;;;;;;;;;;;11.30;99.90;;;;;;5073943;28;19912;-70
2022/10/22 06:51:20;;;;;;;;;;;11.30;99.90;;;;;;5073896;28;19915;-70
2022/10/22 06:53:45;;;;;;;;;;;11.30;99.90;;;;;;5073845;28;19913;-70
2022/10/22 06:56:12;;;;;;;;;;;11.20;99.90;;;;;;5107051;28;19919;-70
2022/10/22 06:58:38;;;;;;;;;;;11.30;99.90;;;;;;5072596;28;19908;-70
2022/10/22 07:01:05;;;;;;;;;;;11.20;99.90;;;;;;5072515;28;19913;-70
2022/10/22 07:03:30;;;;;;;;;;;11.30;99.90;;;;;;5073809;28;19961;-70
2022/10/22 07:06:00;;;;;;;;;;;11.30;99.90;;;;;;5074138;28;19912;-70
2022/10/22 07:08:25;;;;;;;;;;;11.30;99.90;;;;;;5072748;28;19909;-69
2022/10/22 07:10:51;;;;;;;;;;;11.30;99.90;;;;;;5106330;28;20062;-70
2022/10/22 07:13:16;;;;;;;;;;;11.40;99.90;;;;;;5073922;28;19938;-69
2022/10/22 07:15:42;;;;;;;;;;;11.40;99.90;;;;;;5074005;28;20003;-70
2022/10/22 07:18:08;;;;;;;;;;;11.50;99.90;;;;;;5072406;28;19912;-69
2022/10/22 07:20:33;;;;;;;;;;;11.50;99.90;;;;;;5073833;28;19916;-69
2022/10/22 07:22:59;;;;;;;;;;;11.50;99.90;;;;;;5072197;28;19917;-69
2022/10/22 07:25:24;;;;;;;;;;;11.60;99.90;;;;;;5073544;28;19913;-69
2022/10/22 07:27:51;;;;;;;;;;;11.60;99.90;;;;;;5073781;28;19961;-69
2022/10/22 07:30:17;;;;;;;;;;;11.60;99.90;;;;;;5073450;28;19917;-70
2022/10/22 07:32:42;;;;;;;;;;;11.70;99.90;;;;;;5073346;28;20007;-70
2022/10/22 07:35:08;;;;;;;;;;;11.70;99.90;;;;;;5074019;28;20372;-69
2022/10/22 07:37:34;;;;;;;;;;;11.70;99.90;;;;;;5073449;28;20372;-69
2022/10/22 07:39:59;;;;;;;;;;;11.70;99.90;;;;;;5073682;28;19923;-69
2022/10/22 07:42:25;;;;;;;;;;;11.70;99.90;;;;;;5073334;28;19927;-69
2022/10/22 07:44:50;;;;;;;;;;;11.70;99.90;;;;;;5073905;28;19917;-69
2022/10/22 07:47:16;;;;;;;;;;;11.70;99.90;;;;;;5073589;28;19920;-70
2022/10/22 07:49:42;;;;;;;;;;;11.80;99.90;;;;;;5073301;28;19917;-69
2022/10/22 07:52:07;;;;;;;;;;;11.80;99.90;;;;;;5073505;28;20276;-69
2022/10/22 07:54:33;;;;;;;;;;;11.70;99.90;;;;;;5073290;28;19947;-69
2022/10/22 07:56:58;;;;;;;;;;;11.80;99.90;;;;;;5073504;28;20276;-69
2022/10/22 07:59:24;;;;;;;;;;;11.80;99.90;;;;;;5072648;28;19912;-69
2022/10/22 08:01:50;;;;;;;;;;;11.80;99.90;;;;;;5071262;28;19917;-69
2022/10/22 08:04:15;;;;;;;;;;;11.80;99.90;;;;;;5104490;28;20620;-69
2022/10/22 08:06:41;;;;;;;;;;;11.80;99.90;;;;;;5103357;28;19936;-69
2022/10/22 08:09:06;;;;;;;;;;;11.80;99.90;;;;;;5072723;28;19925;-70
2022/10/22 08:11:32;;;;;;;;;;;11.80;99.90;;;;;;5071474;28;19913;-69
2022/10/22 08:13:58;;;;;;;;;;;11.80;99.90;;;;;;5072197;28;20369;-69
2022/10/22 08:16:24;;;;;;;;;;;11.80;99.90;;;;;;5085573;28;19969;-70
2022/10/22 08:18:49;;;;;;;;;;;11.80;99.90;;;;;;5093446;28;19920;-70
2022/10/22 08:21:16;;;;;;;;;;;11.80;99.90;;;;;;5090146;28;19924;-69
2022/10/22 08:23:42;;;;;;;;;;;11.80;99.90;;;;;;5056708;28;19962;-70
2022/10/22 08:26:08;;;;;;;;;;;11.80;99.90;;;;;;5067404;28;19920;-70
2022/10/22 08:28:35;;;;;;;;;;;11.80;99.90;;;;;;5074781;28;20378;-70
2022/10/22 08:31:02;;;;;;;;;;;11.90;99.90;;;;;;5076692;28;19923;-70
2022/10/22 08:33:28;;;;;;;;;;;11.90;99.90;;;;;;5075758;28;20420;-70
2022/10/22 08:35:53;;;;;;;;;;;11.90;99.90;;;;;;5076786;28;19975;-71
2022/10/22 08:38:19;;;;;;;;;;;11.90;99.90;;;;;;5074918;28;19912;-71
2022/10/22 08:40:49;;;;;;;;;;;11.90;99.90;;;;;;5076751;28;19923;-71
2022/10/22 08:43:17;;;;;;;;;;;11.90;99.90;;;;;;5076633;28;19916;-71
2022/10/22 08:45:55;;;;;;;;;;;11.90;99.90;;;;;;5076660;28;20305;-71
2022/10/22 08:48:21;;;;;;;;;;;11.90;99.90;;;;;;5076242;28;19952;-71
2022/10/22 08:50:48;;;;;;;;;;;11.90;99.90;;;;;;5076902;28;19958;-71
2022/10/22 08:53:16;;;;;;;;;;;11.90;99.90;;;;;;5076293;28;19935;-71
2022/10/22 08:55:42;;;;;;;;;;;11.90;99.90;;;;;;5075066;28;19940;-71
2022/10/22 08:58:21;;;;;;;;;;;11.90;99.90;;;;;;5074915;28;19909;-70
2022/10/22 09:00:54;;;;;;;;;;;11.90;99.90;;;;;;5076095;28;20391;-71
2022/10/22 09:03:26;;;;;;;;;;;11.90;99.90;;;;;;5076287;28;19961;-71
2022/10/22 09:05:51;;;;;;;;;;;11.90;99.90;;;;;;5076680;28;20348;-71
2022/10/22 09:08:18;;;;;;;;;;;11.90;99.90;;;;;;5076028;28;19914;-71
2022/10/22 09:10:48;;;;;;;;;;;11.90;99.90;;;;;;5076013;28;19912;-71
2022/10/22 09:13:17;;;;;;;;;;;11.90;99.90;;;;;;5075922;28;19951;-71
2022/10/22 09:15:44;;;;;;;;;;;12.00;99.90;;;;;;5075993;28;19913;-71
2022/10/22 09:18:18;;;;;;;;;;;12.00;99.90;;;;;;5076136;28;19985;-71
2022/10/22 09:20:49;;;;;;;;;;;12.00;99.90;;;;;;5074423;28;19924;-71
2022/10/22 09:23:18;;;;;;;;;;;12.00;99.90;;;;;;5075936;28;19971;-71
2022/10/22 09:25:44;;;;;;;;;;;12.10;99.90;;;;;;5075912;28;19950;-71
2022/10/22 09:28:10;;;;;;;;;;;12.10;99.90;;;;;;5075902;28;19912;-71
2022/10/22 09:30:37;;;;;;;;;;;12.10;99.90;;;;;;5075458;28;20042;-71
2022/10/22 09:33:06;;;;;;;;;;;12.10;99.90;;;;;;5074992;28;19909;-70
2022/10/22 09:35:42;;;;;;;;;;;12.10;99.90;;;;;;5074256;28;19997;-70
2022/10/22 09:38:08;;;;;;;;;;;12.10;99.90;;;;;;5075497;28;19915;-70
2022/10/22 09:40:44;;;;;;;;;;;12.20;99.90;;;;;;5075574;28;19916;-70
2022/10/22 09:43:13;;;;;;;;;;;12.20;99.90;;;;;;5075413;28;19909;-70
2022/10/22 09:45:40;;;;;;;;;;;12.30;99.90;;;;;;5075242;28;19908;-71
2022/10/22 09:48:18;;;;;;;;;;;12.30;99.90;;;;;;5074001;28;19919;-71
2022/10/22 09:50:45;;;;;;;;;;;12.30;99.90;;;;;;5073982;28;19909;-70
2022/10/22 09:53:11;;;;;;;;;;;12.40;99.90;;;;;;5075052;28;20474;-70
2022/10/22 09:55:40;;;;;;;;;;;12.40;99.90;;;;;;5075658;28;19916;-70
2022/10/22 09:58:10;;;;;;;;;;;12.40;99.90;;;;;;5075064;28;19958;-70
2022/10/22 10:00:37;;;;;;;;;;;12.50;99.90;;;;;;5075451;28;19934;-70
2022/10/22 10:03:02;;;;;;;;;;;12.50;99.90;;;;;;5075129;28;20352;-70
2022/10/22 10:05:30;;;;;;;;;;;12.50;99.90;;;;;;5074838;28;19913;-70
2022/10/22 10:07:57;;;;;;;;;;;12.50;99.90;;;;;;5074987;28;19916;-70
2022/10/22 10:10:31;;;;;;;;;;;12.50;99.90;;;;;;5074751;28;19913;-70
2022/10/22 10:13:16;;;;;;;;;;;12.60;99.90;;;;;;5074670;28;19938;-70
2022/10/22 10:15:50;;;;;;;;;;;12.60;99.90;;;;;;5074779;28;20383;-70
2022/10/22 10:18:42;;;;;;;;;;;12.60;99.90;;;;;;5074888;28;19939;-70
2022/10/22 10:21:11;;;;;;;;;;;12.60;99.90;;;;;;5064413;28;20003;-70
2022/10/22 10:23:39;;;;;;;;;;;12.60;99.90;;;;;;5074396;28;19967;-70
2022/10/22 10:26:05;;;;;;;;;;;12.60;99.90;;;;;;5074404;28;20383;-70
2022/10/22 10:28:43;;;;;;;;;;;12.70;99.90;;;;;;5074374;28;19912;-70
2022/10/22 10:31:14;;;;;;;;;;;12.70;99.90;;;;;;5074337;28;19909;-70
2022/10/22 10:33:46;;;;;;;;;;;12.80;99.90;;;;;;5074327;28;20062;-70
2022/10/22 10:36:28;;;;;;;;;;;12.80;99.90;;;;;;5074809;28;19958;-71
2022/10/22 10:38:54;;;;;;;;;;;12.90;99.90;;;;;;5074173;28;20411;-71
2022/10/22 10:41:40;;;;;;;;;;;13.00;99.90;;;;;;5074672;28;19917;-71
2022/10/22 10:44:24;;;;;;;;;;;13.00;99.90;;;;;;5072776;28;19912;-71
2022/10/22 10:47:01;;;;;;;;;;;13.10;99.90;;;;;;5074428;28;19943;-71
2022/10/22 10:49:32;;;;;;;;;;;13.10;99.90;;;;;;5073995;28;19908;-71
2022/10/22 10:52:16;;;;;;;;;;;13.10;99.90;;;;;;5073959;28;19912;-71
2022/10/22 10:55:11;;;;;;;;;;;13.10;99.90;;;;;;5073968;28;20007;-71
2022/10/22 10:57:42;;;;;;;;;;;13.10;99.90;;;;;;5054411;28;20257;-71
2022/10/22 11:00:14;;;;;;;;;;;13.10;99.90;;;;;;5074341;28;19909;-71
2022/10/22 11:02:51;;;;;;;;;;;13.10;99.90;;;;;;5074049;28;19912;-71
2022/10/22 11:05:27;;;;;;;;;;;13.10;99.90;;;;;;5073774;28;19914;-71
2022/10/22 11:07:54;;;;;;;;;;;13.10;99.90;;;;;;5073811;28;20379;-71
2022/10/22 11:10:20;;;;;;;;;;;13.10;99.90;;;;;;5073369;28;19913;-71
2022/10/22 11:12:50;;;;;;;;;;;13.10;99.90;;;;;;5072938;28;19935;-71
2022/10/22 11:15:18;;;;;;;;;;;13.00;99.90;;;;;;5076233;28;19920;-70
2022/10/22 11:17:45;;;;;;;;;;;13.10;99.90;;;;;;5073703;28;19908;-70
2022/10/22 11:20:18;;;;;;;;;;;13.00;99.90;;;;;;5073548;28;19928;-70
2022/10/22 11:23:01;;;;;;;;;;;13.00;99.90;;;;;;5072261;28;19931;-70
2022/10/22 11:25:33;;;;;;;;;;;13.00;99.90;;;;;;5073860;28;19916;-70
2022/10/22 11:28:04;;;;;;;;;;;13.00;99.90;;;;;;5073575;28;20415;-70
2022/10/22 11:30:33;;;;;;;;;;;13.10;99.90;;;;;;5073604;28;19916;-70
2022/10/22 11:33:01;;;;;;;;;;;13.10;99.90;;;;;;5073711;28;19909;-70
2022/10/22 11:35:34;;;;;;;;;;;13.10;99.90;;;;;;5073474;28;19916;-70
2022/10/22 11:38:01;;;;;;;;;;;13.10;99.90;;;;;;5073453;28;19909;-70
2022/10/22 11:40:47;;;;;;;;;;;13.10;99.90;;;;;;5073328;28;19935;-70
2022/10/22 11:43:45;;;;;;;;;;;13.20;99.90;;;;;;5073366;28;20038;-71
2022/10/22 11:46:13;;;;;;;;;;;13.20;99.90;;;;;;5050172;28;20384;-71
2022/10/22 11:48:39;;;;;;;;;;;13.20;99.90;;;;;;5073263;28;19916;-70
2022/10/22 11:51:25;;;;;;;;;;;13.20;99.90;;;;;;5073538;28;19934;-70
2022/10/22 11:53:55;;;;;;;;;;;13.20;99.90;;;;;;5071797;28;20289;-70
2022/10/22 11:56:22;;;;;;;;;;;13.20;99.90;;;;;;5077473;28;19919;-70
2022/10/22 11:58:48;;;;;;;;;;;13.30;99.90;;;;;;5077540;28;19909;-71
2022/10/22 12:01:20;;;;;;;;;;;13.30;99.90;;;;;;5077182;28;20047;-70
2022/10/22 12:03:49;;;;;;;;;;;13.40;99.90;;;;;;5077168;28;19908;-71
2022/10/22 12:06:14;;;;;;;;;;;13.40;99.90;;;;;;5075829;28;19909;-70
2022/10/22 12:08:46;;;;;;;;;;;13.40;99.90;;;;;;5077030;28;19915;-70
2022/10/22 12:11:30;;;;;;;;;;;13.40;99.90;;;;;;5077021;28;19948;-70
2022/10/22 12:14:14;;;;;;;;;;;13.50;99.90;;;;;;5076919;28;19908;-70
2022/10/22 12:16:43;;;;;;;;;;;13.50;99.90;;;;;;5076784;28;19916;-70
2022/10/22 12:19:08;;;;;;;;;;;13.60;99.90;;;;;;5075517;28;19909;-70
2022/10/22 12:21:36;;;;;;;;;;;13.60;99.90;;;;;;5076828;28;19920;-70
2022/10/22 12:24:02;;;;;;;;;;;13.70;99.90;;;;;;5076845;28;20371;-70
2022/10/22 12:26:29;;;;;;;;;;;13.70;99.90;;;;;;5076771;28;20398;-70
2022/10/22 12:28:55;;;;;;;;;;;13.70;99.90;;;;;;5076763;28;19909;-69
2022/10/22 12:31:21;;;;;;;;;;;13.70;99.90;;;;;;5076710;28;19953;-69
2022/10/22 12:33:48;;;;;;;;;;;13.80;99.90;;;;;;5076569;28;20374;-69
2022/10/22 12:36:14;;;;;;;;;;;13.80;99.90;;;;;;5076884;28;19913;-69
2022/10/22 12:38:45;;;;;;;;;;;13.80;99.90;;;;;;5076557;28;20011;-69
2022/10/22 12:41:11;;;;;;;;;;;13.80;99.90;;;;;;5076476;28;20327;-70
2022/10/22 12:43:38;;;;;;;;;;;13.90;99.90;;;;;;5076684;28;19912;-70
2022/10/22 12:46:08;;;;;;;;;;;14.00;99.90;;;;;;5076675;28;19937;-70
2022/10/22 12:48:37;;;;;;;;;;;14.00;99.90;;;;;;5076335;28;19915;-70
2022/10/22 12:51:06;;;;;;;;;;;14.10;99.90;;;;;;5076297;28;19934;-70
2022/10/22 12:53:34;;;;;;;;;;;14.20;99.90;;;;;;5076168;28;19908;-70
2022/10/22 12:56:03;;;;;;;;;;;14.20;99.90;;;;;;5076171;28;19912;-70
2022/10/22 12:58:33;;;;;;;;;;;14.20;99.90;;;;;;5076427;28;19915;-70
2022/10/22 13:01:00;;;;;;;;;;;14.30;99.90;;;;;;5076416;28;20269;-69
2022/10/22 13:03:31;;;;;;;;;;;14.40;99.90;;;;;;5076076;28;20368;-70
2022/10/22 13:06:10;;;;;;;;;;;14.40;99.90;;;;;;5075102;28;19909;-69
2022/10/22 13:08:37;;;;;;;;;;;14.60;99.90;;;;;;5076229;28;20349;-69
2022/10/22 13:11:06;;;;;;;;;;;14.70;99.90;;;;;;5076282;28;20347;-70
2022/10/22 13:13:39;;;;;;;;;;;14.90;99.90;;;;;;5075961;28;19912;-70
2022/10/22 13:16:12;;;;;;;;;;;15.00;99.90;;;;;;5075863;28;19955;-70
2022/10/22 13:18:37;;;;;;;;;;;15.20;99.90;;;;;;5075782;28;19987;-69
2022/10/22 13:21:04;;;;;;;;;;;15.20;99.90;;;;;;5075688;28;20007;-70
2022/10/22 13:23:31;;;;;;;;;;;15.20;99.90;;;;;;5075795;28;19992;-70
2022/10/22 13:26:03;;;;;;;;;;;15.20;99.90;;;;;;5075670;28;19912;-69
2022/10/22 13:28:32;;;;;;;;;;;15.30;99.90;;;;;;5075767;28;19916;-69
2022/10/22 13:30:58;;;;;;;;;;;15.50;99.90;;;;;;5074354;28;19939;-70
2022/10/22 13:33:33;;;;;;;;;;;15.60;99.90;;;;;;5075100;28;20338;-70
2022/10/22 13:35:59;;;;;;;;;;;15.80;99.90;;;;;;5075088;28;20341;-70
2022/10/22 13:38:25;;;;;;;;;;;15.90;99.90;;;;;;5075706;28;20011;-70
2022/10/22 13:40:51;;;;;;;;;;;15.90;99.90;;;;;;5075567;28;20018;-70
2022/10/22 13:43:18;;;;;;;;;;;16.00;99.90;;;;;;5075142;28;19952;-69
2022/10/22 13:45:44;;;;;;;;;;;16.00;99.90;;;;;;5073886;28;19965;-70
2022/10/22 13:48:12;;;;;;;;;;;16.10;99.90;;;;;;5074013;28;19913;-70
2022/10/22 13:50:38;;;;;;;;;;;16.20;99.90;;;;;;5086374;28;19991;-70
2022/10/22 13:53:04;;;;;;;;;;;16.20;99.90;;;;;;5074524;28;19974;-69
2022/10/22 13:55:30;;;;;;;;;;;16.20;99.90;;;;;;5075699;28;19913;-70
2022/10/22 13:57:56;;;;;;;;;;;16.20;99.90;;;;;;5073856;28;19966;-70
2022/10/22 14:00:22;;;;;;;;;;;16.20;99.90;;;;;;5075554;28;20290;-70
2022/10/22 14:02:49;;;;;;;;;;;16.20;99.90;;;;;;5074942;28;19913;-69
2022/10/22 14:05:16;;;;;;;;;;;16.30;99.90;;;;;;5074955;28;19912;-69
2022/10/22 14:07:42;;;;;;;;;;;16.30;99.90;;;;;;5075134;28;20414;-69
2022/10/22 14:10:23;;;;;;;;;;;16.30;99.90;;;;;;5075409;28;19908;-70
2022/10/22 14:12:49;;;;;;;;;;;16.40;99.90;;;;;;5073640;28;19956;-70
2022/10/22 14:15:16;;;;;;;;;;;16.40;99.90;;;;;;5085361;28;19919;-70
2022/10/22 14:17:48;;;;;;;;;;;16.40;99.90;;;;;;5087350;28;20384;-70
2022/10/22 14:20:24;;;;;;;;;;;16.30;99.90;;;;;;5075084;28;19958;-70
2022/10/22 14:22:51;;;;;;;;;;;16.20;99.90;;;;;;5090139;28;21321;-69